»·PEaware :: N27JP KSMX-KBFL

N27JP :: KSMX-KBFL

FLIGHT INFORMATION

Flight Status: Arrived
Operator: Privately registered:
United States
More flights under this callsign
Pilot: Weston J. (31543)
Aircraft: CESSNA 172 SKYHAWK
(C172)
More flights by this aircraft type
Origin: KSMX Santa Maria Pub/Capt Hancock
United States
Destination: KBFL Meadows
United States
More flights between these airports :: More routes between these airports
Route: FLW ARVIN JUPEX
File this flight plan on PilotEdge
Remarks:
Altitude:
(Current/Filed)
7,500ft
Speed:
(Current/Filed)
170kts
Departed: 18-Sep-20 03:20 PM
Arrived: 18-Sep-20 03:58 PM
Distance/Time
Traveled:
6875nm/0:38
Distance/Time
To Go:
Arrived

Flight Plot

Page will automatically refresh every two minutes.

Flight plan parsing failed; only flown route is shown


Map Options




Map Legend


Flown Route
Filed Route
Departure Airport
Arrival Airport
Navaid (VOR, NDB)
Fix

Horizontal Profiles

Position Reports

Time Latitude Longitude Heading Altitude Ground
Speed
18-Sep-20 15:10 34.894508 -120.443633 321 262ft 0kts
18-Sep-20 15:11 34.894508 -120.443633 321 262ft 0kts
18-Sep-20 15:12 34.894508 -120.443633 321 262ft 0kts
18-Sep-20 15:13 34.894508 -120.443633 321 262ft 0kts
18-Sep-20 15:14 34.894508 -120.443633 321 262ft 0kts
18-Sep-20 15:15 34.894508 -120.443633 321 262ft 0kts
18-Sep-20 15:16 34.894278 -120.443406 321 263ft 0kts
18-Sep-20 15:17 34.894087 -120.444967 251 262ft 12kts
18-Sep-20 15:18 34.893419 -120.445267 180 263ft 0kts
18-Sep-20 15:19 34.896536 -120.450405 314 249ft 103kts
18-Sep-20 15:20 34.931547 -120.464589 33 2136ft 159kts
18-Sep-20 15:21 34.963503 -120.425682 47 3793ft 184kts
18-Sep-20 15:22 34.990849 -120.384832 68 6482ft 136kts
18-Sep-20 15:23 35.007621 -120.334001 68 7458ft 188kts
18-Sep-20 15:24 35.028014 -120.271860 68 7499ft 200kts
18-Sep-20 15:25 35.046964 -120.214187 68 7503ft 174kts
18-Sep-20 15:26 35.064932 -120.159590 68 7500ft 173kts
18-Sep-20 15:27 35.082831 -120.105126 68 7498ft 172kts
18-Sep-20 15:28 35.100742 -120.050755 68 7501ft 172kts
18-Sep-20 15:29 35.114694 -119.995170 100 7497ft 172kts
18-Sep-20 15:30 35.100665 -119.939578 108 7500ft 171kts
18-Sep-20 15:31 35.092370 -119.882633 81 7506ft 172kts
18-Sep-20 15:32 35.100373 -119.824837 77 7499ft 173kts
18-Sep-20 15:33 35.111426 -119.767919 77 7499ft 172kts
18-Sep-20 15:34 35.121964 -119.710912 77 7500ft 172kts
18-Sep-20 15:35 35.132635 -119.653595 77 7500ft 172kts
18-Sep-20 15:36 35.143248 -119.596354 77 7502ft 173kts
18-Sep-20 15:37 35.153812 -119.539310 77 7500ft 172kts
18-Sep-20 15:38 35.164340 -119.482072 78 7500ft 172kts
18-Sep-20 15:39 35.174858 -119.424912 77 7499ft 172kts
18-Sep-20 15:40 35.185315 -119.367743 77 7500ft 172kts
18-Sep-20 15:41 35.195800 -119.310451 78 7500ft 172kts
18-Sep-20 15:42 35.206268 -119.253135 78 7499ft 172kts
18-Sep-20 15:43 35.216354 -119.197487 78 7500ft 154kts
18-Sep-20 15:44 35.225378 -119.147755 78 7500ft 148kts
18-Sep-20 15:45 35.234142 -119.099275 78 7498ft 140kts
18-Sep-20 15:46 35.242342 -119.053809 78 7500ft 135kts
18-Sep-20 15:47 35.252859 -118.995385 78 7487ft 181kts
18-Sep-20 15:48 35.263000 -118.938808 78 6230ft 167kts
18-Sep-20 15:49 35.272948 -118.883245 78 4731ft 167kts
18-Sep-20 15:50 35.300077 -118.875485 266 3472ft 128kts
18-Sep-20 15:51 35.316893 -118.909936 310 3683ft 133kts
18-Sep-20 15:52 35.344207 -118.947611 310 2352ft 140kts
18-Sep-20 15:53 35.369212 -118.979124 313 1869ft 126kts
18-Sep-20 15:54 35.393536 -119.007925 316 1227ft 96kts
18-Sep-20 15:55 35.411826 -119.029706 314 761ft 88kts
18-Sep-20 15:56 35.429276 -119.050766 314 539ft 83kts
18-Sep-20 15:57 35.436360 -119.057165 107 493ft 0kts
18-Sep-20 15:58 35.436867 -119.054029 45 494ft 8kts
18-Sep-20 15:59 0.000408 0.013975 0 3ft 0kts
18-Sep-20 16:00 0.000408 0.013975 0 3ft 0kts
18-Sep-20 16:01 0.000408 0.013975 0 3ft 0kts
18-Sep-20 16:02 0.000408 0.013975 0 3ft 0kts
18-Sep-20 16:03 0.000408 0.013975 0 3ft 0kts
18-Sep-20 16:04 0.000408 0.013975 0 3ft 0kts
18-Sep-20 16:05 0.000408 0.013975 0 3ft 0kts
18-Sep-20 16:06 0.000408 0.013975 0 3ft 0kts
18-Sep-20 16:07 0.000408 0.013975 0 3ft 0kts
18-Sep-20 16:08 0.000408 0.013975 0 3ft 0kts
18-Sep-20 16:09 0.000408 0.013975 0 3ft 0kts
18-Sep-20 16:10 0.000408 0.013975 0 3ft 0kts
18-Sep-20 16:11 0.000408 0.013975 0 3ft 0kts
18-Sep-20 16:12 0.000408 0.013975 0 3ft 0kts

Navigation Log

Ident Type
Flight plan parsing failed, navigation log unavailable